sensor_id;sensor_type;location;lat;lon;timestamp;pressure;altitude;pressure_sealevel;temperature;humidity
54042;BME280;41156;51.508;5.406;2022-09-29T00:01:43;99862.56;;;7.35;99.58
54042;BME280;41156;51.508;5.406;2022-09-29T00:04:43;99869.53;;;7.43;98.91
54042;BME280;41156;51.508;5.406;2022-09-29T00:07:43;99867.13;;;7.35;99.25
54042;BME280;41156;51.508;5.406;2022-09-29T00:10:44;99869.44;;;7.31;99.35
54042;BME280;41156;51.508;5.406;2022-09-29T00:13:46;99864.47;;;7.28;99.30
54042;BME280;41156;51.508;5.406;2022-09-29T00:16:46;99866.78;;;7.25;98.88
54042;BME280;41156;51.508;5.406;2022-09-29T00:19:48;99869.06;;;7.21;99.09
54042;BME280;41156;51.508;5.406;2022-09-29T00:22:49;99864.94;;;7.18;99.04
54042;BME280;41156;51.508;5.406;2022-09-29T00:28:59;99866.66;;;7.13;99.24
54042;BME280;41156;51.508;5.406;2022-09-29T00:32:00;99860.88;;;7.09;99.25
54042;BME280;41156;51.508;5.406;2022-09-29T00:35:00;99858.38;;;7.08;99.43
54042;BME280;41156;51.508;5.406;2022-09-29T00:38:00;99856.16;;;7.04;99.14
54042;BME280;41156;51.508;5.406;2022-09-29T00:41:01;99860.91;;;7.02;99.37
54042;BME280;41156;51.508;5.406;2022-09-29T00:44:53;99854.94;;;7.00;99.30
54042;BME280;41156;51.508;5.406;2022-09-29T00:47:26;99854.22;;;7.18;98.36
54042;BME280;41156;51.508;5.406;2022-09-29T00:50:49;99864.91;;;7.25;97.63
54042;BME280;41156;51.508;5.406;2022-09-29T00:53:51;99859.63;;;7.12;97.82
54042;BME280;41156;51.508;5.406;2022-09-29T00:56:51;99863.00;;;7.00;98.66
54042;BME280;41156;51.508;5.406;2022-09-29T00:59:58;99860.13;;;6.95;98.56
54042;BME280;41156;51.508;5.406;2022-09-29T01:03:17;99857.25;;;6.90;99.00
54042;BME280;41156;51.508;5.406;2022-09-29T01:06:22;99856.03;;;6.86;99.01
54042;BME280;41156;51.508;5.406;2022-09-29T01:09:33;99851.13;;;6.83;98.76
54042;BME280;41156;51.508;5.406;2022-09-29T01:12:34;99849.13;;;7.03;97.84
54042;BME280;41156;51.508;5.406;2022-09-29T01:15:34;99854.06;;;7.07;97.56
54042;BME280;41156;51.508;5.406;2022-09-29T01:18:35;99849.84;;;6.85;97.67
54042;BME280;41156;51.508;5.406;2022-09-29T01:22:00;99862.50;;;6.78;98.57
54042;BME280;41156;51.508;5.406;2022-09-29T01:31:37;99854.69;;;6.70;99.30
54042;BME280;41156;51.508;5.406;2022-09-29T01:35:21;99859.44;;;6.68;99.86
54042;BME280;41156;51.508;5.406;2022-09-29T01:38:48;99863.97;;;6.67;99.21
54042;BME280;41156;51.508;5.406;2022-09-29T01:41:50;99863.38;;;6.65;98.97
54042;BME280;41156;51.508;5.406;2022-09-29T01:45:04;99855.72;;;6.62;99.35
54042;BME280;41156;51.508;5.406;2022-09-29T01:48:13;99859.47;;;6.61;98.91
54042;BME280;41156;51.508;5.406;2022-09-29T01:51:19;99865.25;;;6.58;99.12
54042;BME280;41156;51.508;5.406;2022-09-29T01:54:28;99861.13;;;6.56;98.84
54042;BME280;41156;51.508;5.406;2022-09-29T01:57:39;99866.31;;;6.51;99.15
54042;BME280;41156;51.508;5.406;2022-09-29T02:00:50;99855.78;;;6.49;99.06
54042;BME280;41156;51.508;5.406;2022-09-29T02:03:59;99857.88;;;6.47;99.33
54042;BME280;41156;51.508;5.406;2022-09-29T02:07:09;99858.06;;;6.45;99.22
54042;BME280;41156;51.508;5.406;2022-09-29T02:10:24;99861.19;;;6.42;98.98
54042;BME280;41156;51.508;5.406;2022-09-29T02:13:29;99858.72;;;6.41;99.45
54042;BME280;41156;51.508;5.406;2022-09-29T02:16:33;99866.75;;;6.41;99.40
54042;BME280;41156;51.508;5.406;2022-09-29T02:19:37;99867.81;;;6.40;99.30
54042;BME280;41156;51.508;5.406;2022-09-29T02:22:41;99863.03;;;6.48;99.01
54042;BME280;41156;51.508;5.406;2022-09-29T02:25:42;99864.88;;;6.55;98.46
54042;BME280;41156;51.508;5.406;2022-09-29T02:28:44;99866.69;;;6.61;98.14
54042;BME280;41156;51.508;5.406;2022-09-29T02:31:45;99872.25;;;6.59;97.97
54042;BME280;41156;51.508;5.406;2022-09-29T02:34:48;99866.47;;;6.62;98.35
54042;BME280;41156;51.508;5.406;2022-09-29T02:38:16;99862.56;;;6.65;97.64
54042;BME280;41156;51.508;5.406;2022-09-29T02:44:36;99867.94;;;6.58;97.81
54042;BME280;41156;51.508;5.406;2022-09-29T02:47:51;99868.19;;;6.50;98.09
54042;BME280;41156;51.508;5.406;2022-09-29T02:54:17;99867.75;;;6.53;97.59
54042;BME280;41156;51.508;5.406;2022-09-29T02:57:38;99867.13;;;6.51;97.18
54042;BME280;41156;51.508;5.406;2022-09-29T03:00:43;99866.13;;;6.45;97.20
54042;BME280;41156;51.508;5.406;2022-09-29T03:03:44;99861.19;;;6.42;97.50
54042;BME280;41156;51.508;5.406;2022-09-29T03:06:44;99868.63;;;6.40;97.09
54042;BME280;41156;51.508;5.406;2022-09-29T03:09:45;99873.78;;;6.42;97.31
54042;BME280;41156;51.508;5.406;2022-09-29T03:12:46;99869.44;;;6.41;96.83
54042;BME280;41156;51.508;5.406;2022-09-29T03:15:46;99862.25;;;6.35;97.15
54042;BME280;41156;51.508;5.406;2022-09-29T03:18:46;99865.34;;;6.38;97.16
54042;BME280;41156;51.508;5.406;2022-09-29T03:21:46;99863.69;;;6.37;97.13
54042;BME280;41156;51.508;5.406;2022-09-29T03:24:47;99856.69;;;6.36;97.27
54042;BME280;41156;51.508;5.406;2022-09-29T03:27:47;99869.84;;;6.38;97.54
54042;BME280;41156;51.508;5.406;2022-09-29T03:30:49;99865.97;;;6.34;97.79
54042;BME280;41156;51.508;5.406;2022-09-29T03:33:49;99862.88;;;6.37;97.51
54042;BME280;41156;51.508;5.406;2022-09-29T03:36:50;99866.56;;;6.36;97.48
54042;BME280;41156;51.508;5.406;2022-09-29T03:39:50;99874.03;;;6.27;97.58
54042;BME280;41156;51.508;5.406;2022-09-29T03:42:50;99866.59;;;6.29;97.48
54042;BME280;41156;51.508;5.406;2022-09-29T03:45:52;99873.63;;;6.30;97.17
54042;BME280;41156;51.508;5.406;2022-09-29T03:48:53;99869.06;;;6.30;96.90
54042;BME280;41156;51.508;5.406;2022-09-29T03:51:54;99871.34;;;6.27;97.12
54042;BME280;41156;51.508;5.406;2022-09-29T03:54:54;99871.97;;;6.22;97.21
54042;BME280;41156;51.508;5.406;2022-09-29T03:57:54;99866.59;;;6.22;97.01
54042;BME280;41156;51.508;5.406;2022-09-29T04:00:54;99872.59;;;6.18;97.57
54042;BME280;41156;51.508;5.406;2022-09-29T04:03:55;99876.53;;;6.22;97.42
54042;BME280;41156;51.508;5.406;2022-09-29T04:06:56;99883.53;;;6.23;97.30
54042;BME280;41156;51.508;5.406;2022-09-29T04:09:56;99878.19;;;6.23;97.17
54042;BME280;41156;51.508;5.406;2022-09-29T04:12:56;99883.97;;;6.20;97.07
54042;BME280;41156;51.508;5.406;2022-09-29T04:15:58;99885.19;;;6.17;96.88
54042;BME280;41156;51.508;5.406;2022-09-29T04:18:59;99890.16;;;6.14;96.88
54042;BME280;41156;51.508;5.406;2022-09-29T04:21:59;99892.22;;;6.11;96.60
54042;BME280;41156;51.508;5.406;2022-09-29T04:25:00;99886.22;;;6.09;96.71
54042;BME280;41156;51.508;5.406;2022-09-29T04:28:00;99889.97;;;6.08;96.70
54042;BME280;41156;51.508;5.406;2022-09-29T04:31:01;99894.50;;;6.08;96.89
54042;BME280;41156;51.508;5.406;2022-09-29T04:34:01;99896.13;;;6.09;96.99
54042;BME280;41156;51.508;5.406;2022-09-29T04:37:01;99898.22;;;6.07;96.92
54042;BME280;41156;51.508;5.406;2022-09-29T04:40:03;99897.59;;;6.05;96.77
54042;BME280;41156;51.508;5.406;2022-09-29T04:43:04;99898.81;;;6.02;96.63
54042;BME280;41156;51.508;5.406;2022-09-29T04:46:06;99900.09;;;6.00;96.75
54042;BME280;41156;51.508;5.406;2022-09-29T04:49:07;99906.47;;;5.99;96.79
54042;BME280;41156;51.508;5.406;2022-09-29T04:52:10;99907.50;;;5.98;96.45
54042;BME280;41156;51.508;5.406;2022-09-29T04:55:11;99900.50;;;5.97;96.51
54042;BME280;41156;51.508;5.406;2022-09-29T04:58:11;99903.75;;;5.92;96.88
54042;BME280;41156;51.508;5.406;2022-09-29T05:01:11;99914.28;;;5.93;97.00
54042;BME280;41156;51.508;5.406;2022-09-29T05:04:12;99912.41;;;5.94;97.42
54042;BME280;41156;51.508;5.406;2022-09-29T05:07:13;99912.63;;;5.92;96.84
54042;BME280;41156;51.508;5.406;2022-09-29T05:10:14;99916.16;;;5.93;96.56
54042;BME280;41156;51.508;5.406;2022-09-29T05:13:14;99921.91;;;5.90;96.91
54042;BME280;41156;51.508;5.406;2022-09-29T05:16:14;99926.22;;;5.84;97.17
54042;BME280;41156;51.508;5.406;2022-09-29T05:19:15;99932.25;;;5.86;96.83
54042;BME280;41156;51.508;5.406;2022-09-29T05:22:15;99925.81;;;5.81;96.96
54042;BME280;41156;51.508;5.406;2022-09-29T05:25:15;99938.81;;;5.77;96.83
54042;BME280;41156;51.508;5.406;2022-09-29T05:28:16;99932.03;;;5.74;97.34
54042;BME280;41156;51.508;5.406;2022-09-29T05:31:16;99942.13;;;5.72;96.64
54042;BME280;41156;51.508;5.406;2022-09-29T05:34:17;99939.22;;;5.74;97.06
54042;BME280;41156;51.508;5.406;2022-09-29T05:37:17;99935.72;;;5.73;96.79
54042;BME280;41156;51.508;5.406;2022-09-29T05:40:18;99945.44;;;5.74;96.63
54042;BME280;41156;51.508;5.406;2022-09-29T05:43:19;99943.97;;;5.72;96.91
54042;BME280;41156;51.508;5.406;2022-09-29T05:46:20;99941.50;;;5.70;96.68
54042;BME280;41156;51.508;5.406;2022-09-29T05:49:21;99949.34;;;5.72;96.83
54042;BME280;41156;51.508;5.406;2022-09-29T05:52:22;99952.81;;;5.66;96.93
54042;BME280;41156;51.508;5.406;2022-09-29T05:55:22;99952.22;;;5.64;97.19
54042;BME280;41156;51.508;5.406;2022-09-29T05:58:23;99953.69;;;5.66;97.29
54042;BME280;41156;51.508;5.406;2022-09-29T06:01:25;99956.34;;;5.66;97.25
54042;BME280;41156;51.508;5.406;2022-09-29T06:04:25;99958.00;;;5.74;97.28
54042;BME280;41156;51.508;5.406;2022-09-29T06:07:25;99962.75;;;5.79;97.20
54042;BME280;41156;51.508;5.406;2022-09-29T06:10:26;99961.53;;;5.81;96.91
54042;BME280;41156;51.508;5.406;2022-09-29T06:13:26;99968.53;;;5.82;97.19
54042;BME280;41156;51.508;5.406;2022-09-29T06:16:28;99972.66;;;5.85;97.13
54042;BME280;41156;51.508;5.406;2022-09-29T06:19:29;99973.06;;;5.88;97.17
54042;BME280;41156;51.508;5.406;2022-09-29T06:22:29;99969.97;;;5.91;97.15
54042;BME280;41156;51.508;5.406;2022-09-29T06:25:29;99971.63;;;5.92;97.64
54042;BME280;41156;51.508;5.406;2022-09-29T06:28:31;99970.84;;;5.99;97.80
54042;BME280;41156;51.508;5.406;2022-09-29T06:31:31;99977.00;;;6.06;97.84
54042;BME280;41156;51.508;5.406;2022-09-29T06:34:31;99976.00;;;6.14;98.19
54042;BME280;41156;51.508;5.406;2022-09-29T06:37:32;99978.88;;;6.19;98.08
54042;BME280;41156;51.508;5.406;2022-09-29T06:40:35;99986.72;;;6.27;98.62
54042;BME280;41156;51.508;5.406;2022-09-29T06:43:35;99994.75;;;6.34;99.07
54042;BME280;41156;51.508;5.406;2022-09-29T06:46:35;99994.34;;;6.43;98.95
54042;BME280;41156;51.508;5.406;2022-09-29T06:49:36;99991.03;;;6.48;98.20
54042;BME280;41156;51.508;5.406;2022-09-29T06:52:37;99998.66;;;6.58;98.75
54042;BME280;41156;51.508;5.406;2022-09-29T06:55:37;99994.91;;;6.65;99.49
54042;BME280;41156;51.508;5.406;2022-09-29T06:58:38;99998.19;;;6.74;99.61
54042;BME280;41156;51.508;5.406;2022-09-29T07:01:39;99994.88;;;6.85;100.00
54042;BME280;41156;51.508;5.406;2022-09-29T07:04:39;100007.66;;;6.97;99.55
54042;BME280;41156;51.508;5.406;2022-09-29T07:07:39;100006.56;;;7.11;99.12
54042;BME280;41156;51.508;5.406;2022-09-29T07:10:39;100010.44;;;7.22;99.22
54042;BME280;41156;51.508;5.406;2022-09-29T07:13:40;100015.16;;;7.33;99.27
54042;BME280;41156;51.508;5.406;2022-09-29T07:16:41;100018.81;;;7.46;99.31
54042;BME280;41156;51.508;5.406;2022-09-29T07:19:41;100011.09;;;7.56;99.49
54042;BME280;41156;51.508;5.406;2022-09-29T07:22:45;100023.69;;;7.62;99.31
54042;BME280;41156;51.508;5.406;2022-09-29T07:25:45;100027.16;;;7.69;99.40
54042;BME280;41156;51.508;5.406;2022-09-29T07:28:47;100032.28;;;7.77;99.01
54042;BME280;41156;51.508;5.406;2022-09-29T07:31:47;100029.31;;;7.86;98.81
54042;BME280;41156;51.508;5.406;2022-09-29T07:34:50;100031.13;;;7.99;98.82
54042;BME280;41156;51.508;5.406;2022-09-29T07:37:54;100037.44;;;8.11;98.61
54042;BME280;41156;51.508;5.406;2022-09-29T07:40:58;100042.97;;;8.23;98.22
54042;BME280;41156;51.508;5.406;2022-09-29T07:43:59;100043.00;;;8.41;98.54
54042;BME280;41156;51.508;5.406;2022-09-29T07:46:59;100042.84;;;9.05;99.16
54042;BME280;41156;51.508;5.406;2022-09-29T07:50:00;100044.31;;;9.98;97.73
54042;BME280;41156;51.508;5.406;2022-09-29T07:53:00;100050.56;;;10.77;95.95
54042;BME280;41156;51.508;5.406;2022-09-29T07:56:07;100044.94;;;11.42;91.20
54042;BME280;41156;51.508;5.406;2022-09-29T07:59:09;100050.75;;;11.63;92.77
54042;BME280;41156;51.508;5.406;2022-09-29T08:02:10;100053.81;;;11.83;90.51
54042;BME280;41156;51.508;5.406;2022-09-29T08:05:11;100050.94;;;12.02;91.83
54042;BME280;41156;51.508;5.406;2022-09-29T08:08:11;100058.50;;;12.17;92.35
54042;BME280;41156;51.508;5.406;2022-09-29T08:11:14;100060.88;;;12.13;91.18
54042;BME280;41156;51.508;5.406;2022-09-29T08:14:15;100066.84;;;11.98;91.01
54042;BME280;41156;51.508;5.406;2022-09-29T08:17:15;100072.63;;;11.61;91.42
54042;BME280;41156;51.508;5.406;2022-09-29T08:20:15;100074.13;;;11.17;91.33
54042;BME280;41156;51.508;5.406;2022-09-29T08:23:16;100085.09;;;10.74;91.34
54042;BME280;41156;51.508;5.406;2022-09-29T08:26:19;100085.19;;;10.44;91.73
54042;BME280;41156;51.508;5.406;2022-09-29T08:29:20;100086.88;;;10.27;92.98
54042;BME280;41156;51.508;5.406;2022-09-29T08:32:20;100100.31;;;9.73;95.01
54042;BME280;41156;51.508;5.406;2022-09-29T08:35:21;100101.56;;;9.70;95.97
54042;BME280;41156;51.508;5.406;2022-09-29T08:38:21;100100.50;;;9.90;96.47
54042;BME280;41156;51.508;5.406;2022-09-29T08:44:47;100106.84;;;9.95;95.93
54042;BME280;41156;51.508;5.406;2022-09-29T08:47:52;100112.94;;;10.21;96.78
54042;BME280;41156;51.508;5.406;2022-09-29T08:51:04;100103.59;;;10.35;95.73
54042;BME280;41156;51.508;5.406;2022-09-29T08:54:32;100110.19;;;10.40;95.07
54042;BME280;41156;51.508;5.406;2022-09-29T08:57:30;100113.28;;;11.02;94.83
54042;BME280;41156;51.508;5.406;2022-09-29T09:00:41;100104.69;;;11.29;90.80
54042;BME280;41156;51.508;5.406;2022-09-29T09:07:05;100113.25;;;11.50;86.49
54042;BME280;41156;51.508;5.406;2022-09-29T09:21:14;100124.88;;;12.02;86.42
54042;BME280;41156;51.508;5.406;2022-09-29T09:24:22;100124.91;;;12.19;87.76
54042;BME280;41156;51.508;5.406;2022-09-29T09:27:38;100122.22;;;12.36;86.93
54042;BME280;41156;51.508;5.406;2022-09-29T09:34:10;100120.25;;;13.00;83.37
54042;BME280;41156;51.508;5.406;2022-09-29T09:37:19;100129.34;;;13.27;85.69
54042;BME280;41156;51.508;5.406;2022-09-29T09:40:26;100129.66;;;13.48;81.49
54042;BME280;41156;51.508;5.406;2022-09-29T09:43:41;100128.13;;;13.57;83.88
54042;BME280;41156;51.508;5.406;2022-09-29T09:46:55;100128.00;;;13.69;82.22
54042;BME280;41156;51.508;5.406;2022-09-29T09:50:11;100132.66;;;13.96;84.85
54042;BME280;41156;51.508;5.406;2022-09-29T09:53:25;100129.81;;;14.07;78.83
54042;BME280;41156;51.508;5.406;2022-09-29T10:00:15;100126.81;;;14.36;78.05
54042;BME280;41156;51.508;5.406;2022-09-29T10:03:17;100138.28;;;14.43;81.04
54042;BME280;41156;51.508;5.406;2022-09-29T10:06:17;100136.50;;;14.54;82.96
54042;BME280;41156;51.508;5.406;2022-09-29T10:09:18;100134.50;;;14.72;81.85
54042;BME280;41156;51.508;5.406;2022-09-29T10:12:21;100122.84;;;14.76;78.48
54042;BME280;41156;51.508;5.406;2022-09-29T10:15:36;100127.28;;;14.88;78.58
54042;BME280;41156;51.508;5.406;2022-09-29T10:18:41;100130.56;;;14.90;77.66
54042;BME280;41156;51.508;5.406;2022-09-29T10:21:43;100133.63;;;15.04;76.28
54042;BME280;41156;51.508;5.406;2022-09-29T10:24:43;100142.19;;;15.23;79.16
54042;BME280;41156;51.508;5.406;2022-09-29T10:27:46;100147.69;;;15.28;76.51
54042;BME280;41156;51.508;5.406;2022-09-29T10:30:48;100149.44;;;15.49;78.82
54042;BME280;41156;51.508;5.406;2022-09-29T10:33:53;100151.66;;;15.58;78.14
54042;BME280;41156;51.508;5.406;2022-09-29T10:37:03;100148.69;;;15.64;75.16
54042;BME280;41156;51.508;5.406;2022-09-29T10:43:24;100144.47;;;15.89;70.27
54042;BME280;41156;51.508;5.406;2022-09-29T10:46:35;100147.50;;;16.13;69.45
54042;BME280;41156;51.508;5.406;2022-09-29T10:49:36;100150.56;;;16.32;77.29
54042;BME280;41156;51.508;5.406;2022-09-29T10:52:41;100150.56;;;16.32;68.48
54042;BME280;41156;51.508;5.406;2022-09-29T10:55:51;100149.44;;;16.13;68.65
54042;BME280;41156;51.508;5.406;2022-09-29T10:58:55;100153.84;;;16.50;75.04
54042;BME280;41156;51.508;5.406;2022-09-29T11:01:58;100154.41;;;16.82;73.95
54042;BME280;41156;51.508;5.406;2022-09-29T11:05:11;100160.97;;;16.87;72.77
54042;BME280;41156;51.508;5.406;2022-09-29T11:08:15;100157.69;;;16.95;74.05
54042;BME280;41156;51.508;5.406;2022-09-29T11:11:33;100152.22;;;17.26;71.88
54042;BME280;41156;51.508;5.406;2022-09-29T11:17:37;100161.25;;;17.11;62.00
54042;BME280;41156;51.508;5.406;2022-09-29T11:20:37;100158.25;;;16.92;64.76
54042;BME280;41156;51.508;5.406;2022-09-29T11:40:43;100162.06;;;17.01;67.31
54042;BME280;41156;51.508;5.406;2022-09-29T11:43:52;100162.84;;;17.37;64.28
54042;BME280;41156;51.508;5.406;2022-09-29T11:57:12;100175.31;;;18.29;66.54
54042;BME280;41156;51.508;5.406;2022-09-29T12:00:17;100180.41;;;18.46;57.81
54042;BME280;41156;51.508;5.406;2022-09-29T12:09:57;100171.50;;;18.30;60.64
54042;BME280;41156;51.508;5.406;2022-09-29T12:13:19;100176.97;;;18.65;57.48
54042;BME280;41156;51.508;5.406;2022-09-29T12:16:26;100178.94;;;18.99;61.11
54042;BME280;41156;51.508;5.406;2022-09-29T12:19:31;100171.72;;;19.08;61.57
54042;BME280;41156;51.508;5.406;2022-09-29T12:22:33;100182.63;;;19.13;61.20
54042;BME280;41156;51.508;5.406;2022-09-29T12:25:38;100173.44;;;19.28;61.56
54042;BME280;41156;51.508;5.406;2022-09-29T12:28:50;100181.97;;;19.27;59.87
54042;BME280;41156;51.508;5.406;2022-09-29T12:31:52;100176.34;;;19.13;62.44
54042;BME280;41156;51.508;5.406;2022-09-29T12:35:00;100186.78;;;18.71;57.56
54042;BME280;41156;51.508;5.406;2022-09-29T12:41:30;100174.72;;;18.38;56.23
54042;BME280;41156;51.508;5.406;2022-09-29T12:44:43;100183.69;;;18.43;59.73
54042;BME280;41156;51.508;5.406;2022-09-29T12:51:25;100179.47;;;18.61;59.92
54042;BME280;41156;51.508;5.406;2022-09-29T12:54:39;100174.03;;;18.56;59.90
54042;BME280;41156;51.508;5.406;2022-09-29T12:57:45;100180.44;;;18.41;59.18
54042;BME280;41156;51.508;5.406;2022-09-29T13:00:56;100174.03;;;18.11;60.68
54042;BME280;41156;51.508;5.406;2022-09-29T13:07:17;100175.28;;;18.35;60.33
54042;BME280;41156;51.508;5.406;2022-09-29T13:17:01;100173.44;;;19.28;51.50
54042;BME280;41156;51.508;5.406;2022-09-29T13:20:22;100172.19;;;19.20;59.03
54042;BME280;41156;51.508;5.406;2022-09-29T13:30:17;100161.75;;;19.71;54.06
54042;BME280;41156;51.508;5.406;2022-09-29T13:33:21;100169.91;;;19.28;56.21
54042;BME280;41156;51.508;5.406;2022-09-29T13:36:29;100175.34;;;19.03;56.71
54042;BME280;41156;51.508;5.406;2022-09-29T13:39:34;100178.84;;;19.09;59.36
54042;BME280;41156;51.508;5.406;2022-09-29T13:42:44;100185.31;;;19.23;55.85
54042;BME280;41156;51.508;5.406;2022-09-29T13:45:45;100188.41;;;19.12;58.42
54042;BME280;41156;51.508;5.406;2022-09-29T13:48:50;100185.91;;;18.81;54.03
54042;BME280;41156;51.508;5.406;2022-09-29T13:51:56;100197.00;;;18.60;57.70
54042;BME280;41156;51.508;5.406;2022-09-29T13:58:36;100191.72;;;18.29;57.70
54042;BME280;41156;51.508;5.406;2022-09-29T14:01:38;100190.91;;;18.29;58.45
54042;BME280;41156;51.508;5.406;2022-09-29T14:04:44;100191.84;;;18.09;56.69
54042;BME280;41156;51.508;5.406;2022-09-29T14:11:03;100201.22;;;17.92;56.60
54042;BME280;41156;51.508;5.406;2022-09-29T14:14:18;100200.66;;;17.80;55.23
54042;BME280;41156;51.508;5.406;2022-09-29T14:17:33;100204.31;;;17.45;55.99
54042;BME280;41156;51.508;5.406;2022-09-29T14:20:35;100202.72;;;17.28;58.82
54042;BME280;41156;51.508;5.406;2022-09-29T14:26:50;100206.81;;;17.05;58.12
54042;BME280;41156;51.508;5.406;2022-09-29T14:30:00;100215.84;;;17.11;59.12
54042;BME280;41156;51.508;5.406;2022-09-29T14:33:18;100218.56;;;17.06;56.61
54042;BME280;41156;51.508;5.406;2022-09-29T14:36:23;100226.50;;;17.07;59.51
54042;BME280;41156;51.508;5.406;2022-09-29T14:39:24;100232.22;;;17.11;60.64
54042;BME280;41156;51.508;5.406;2022-09-29T14:42:25;100226.75;;;17.11;60.57
54042;BME280;41156;51.508;5.406;2022-09-29T14:45:25;100228.13;;;17.03;61.06
54042;BME280;41156;51.508;5.406;2022-09-29T14:48:59;100228.94;;;16.93;60.25
54042;BME280;41156;51.508;5.406;2022-09-29T14:59:08;100234.59;;;16.61;62.24
54042;BME280;41156;51.508;5.406;2022-09-29T15:02:21;100240.84;;;16.56;61.93
54042;BME280;41156;51.508;5.406;2022-09-29T15:05:29;100238.13;;;16.51;62.29
54042;BME280;41156;51.508;5.406;2022-09-29T15:08:30;100245.19;;;16.42;62.86
54042;BME280;41156;51.508;5.406;2022-09-29T15:11:33;100241.34;;;16.38;63.04
54042;BME280;41156;51.508;5.406;2022-09-29T15:14:37;100253.31;;;16.32;63.59
54042;BME280;41156;51.508;5.406;2022-09-29T15:17:59;100253.59;;;16.30;64.59
54042;BME280;41156;51.508;5.406;2022-09-29T15:21:16;100263.13;;;16.22;64.58
54042;BME280;41156;51.508;5.406;2022-09-29T15:24:45;100244.00;;;16.12;64.38
54042;BME280;41156;51.508;5.406;2022-09-29T15:27:53;100251.31;;;16.06;64.45
54042;BME280;41156;51.508;5.406;2022-09-29T15:30:59;100257.03;;;16.00;65.00
54042;BME280;41156;51.508;5.406;2022-09-29T15:34:01;100263.81;;;15.92;63.92
54042;BME280;41156;51.508;5.406;2022-09-29T15:37:03;100256.94;;;15.84;65.37
54042;BME280;41156;51.508;5.406;2022-09-29T15:40:04;100262.91;;;15.76;65.68
54042;BME280;41156;51.508;5.406;2022-09-29T15:43:24;100262.28;;;15.69;65.92
54042;BME280;41156;51.508;5.406;2022-09-29T15:46:38;100266.31;;;15.61;66.75
54042;BME280;41156;51.508;5.406;2022-09-29T15:49:48;100274.72;;;15.54;67.46
54042;BME280;41156;51.508;5.406;2022-09-29T15:52:50;100273.03;;;15.48;66.94
54042;BME280;41156;51.508;5.406;2022-09-29T15:55:51;100277.59;;;15.38;67.57
54042;BME280;41156;51.508;5.406;2022-09-29T15:58:52;100277.81;;;15.31;68.23
54042;BME280;41156;51.508;5.406;2022-09-29T16:02:01;100285.34;;;15.24;69.16
54042;BME280;41156;51.508;5.406;2022-09-29T16:05:08;100292.09;;;15.16;69.28
54042;BME280;41156;51.508;5.406;2022-09-29T16:08:18;100291.50;;;15.09;69.67
54042;BME280;41156;51.508;5.406;2022-09-29T16:11:25;100299.28;;;15.00;69.87
54042;BME280;41156;51.508;5.406;2022-09-29T16:14:26;100303.00;;;14.89;70.11
54042;BME280;41156;51.508;5.406;2022-09-29T16:17:29;100312.16;;;14.77;70.35
54042;BME280;41156;51.508;5.406;2022-09-29T16:20:31;100317.78;;;14.71;70.71
54042;BME280;41156;51.508;5.406;2022-09-29T16:23:40;100316.34;;;14.63;72.21
54042;BME280;41156;51.508;5.406;2022-09-29T16:26:49;100321.63;;;14.53;73.07
54042;BME280;41156;51.508;5.406;2022-09-29T16:30:04;100319.59;;;14.43;74.29
54042;BME280;41156;51.508;5.406;2022-09-29T16:33:15;100320.53;;;14.32;74.51
54042;BME280;41156;51.508;5.406;2022-09-29T16:36:27;100331.84;;;14.23;75.25
54042;BME280;41156;51.508;5.406;2022-09-29T16:39:40;100333.13;;;14.16;76.29
54042;BME280;41156;51.508;5.406;2022-09-29T16:42:49;100342.53;;;14.08;76.39
54042;BME280;41156;51.508;5.406;2022-09-29T16:45:53;100345.41;;;14.01;75.49
54042;BME280;41156;51.508;5.406;2022-09-29T16:48:58;100348.56;;;13.93;75.38
54042;BME280;41156;51.508;5.406;2022-09-29T16:52:23;100351.19;;;13.88;79.07
54042;BME280;41156;51.508;5.406;2022-09-29T16:55:26;100347.84;;;13.81;76.51
54042;BME280;41156;51.508;5.406;2022-09-29T16:58:28;100346.59;;;13.72;76.68
54042;BME280;41156;51.508;5.406;2022-09-29T17:01:28;100353.84;;;13.66;77.23
54042;BME280;41156;51.508;5.406;2022-09-29T17:04:29;100354.03;;;13.59;77.57
54042;BME280;41156;51.508;5.406;2022-09-29T17:07:29;100357.72;;;13.53;77.81
54042;BME280;41156;51.508;5.406;2022-09-29T17:10:30;100363.53;;;13.45;78.37
54042;BME280;41156;51.508;5.406;2022-09-29T17:13:33;100361.81;;;13.39;78.92
54042;BME280;41156;51.508;5.406;2022-09-29T17:16:34;100361.13;;;13.31;79.18
54042;BME280;41156;51.508;5.406;2022-09-29T17:19:34;100364.47;;;13.22;79.49
54042;BME280;41156;51.508;5.406;2022-09-29T17:22:35;100359.44;;;13.13;79.76
54042;BME280;41156;51.508;5.406;2022-09-29T17:25:38;100364.19;;;13.06;80.82
54042;BME280;41156;51.508;5.406;2022-09-29T17:28:39;100377.34;;;12.98;80.19
54042;BME280;41156;51.508;5.406;2022-09-29T17:31:40;100380.91;;;12.86;80.64
54042;BME280;41156;51.508;5.406;2022-09-29T17:34:40;100386.72;;;12.78;80.53
54042;BME280;41156;51.508;5.406;2022-09-29T17:37:41;100386.59;;;12.73;80.87
54042;BME280;41156;51.508;5.406;2022-09-29T17:40:58;100391.34;;;12.66;84.23
54042;BME280;41156;51.508;5.406;2022-09-29T17:44:01;100389.59;;;12.59;81.52
54042;BME280;41156;51.508;5.406;2022-09-29T17:47:08;100394.56;;;12.51;81.94
54042;BME280;41156;51.508;5.406;2022-09-29T17:50:17;100385.72;;;12.44;83.42
54042;BME280;41156;51.508;5.406;2022-09-29T17:53:19;100394.81;;;12.37;81.72
54042;BME280;41156;51.508;5.406;2022-09-29T17:56:22;100398.47;;;12.31;82.30
54042;BME280;41156;51.508;5.406;2022-09-29T17:59:26;100402.13;;;12.25;82.10
54042;BME280;41156;51.508;5.406;2022-09-29T18:02:26;100398.94;;;12.16;82.45
54042;BME280;41156;51.508;5.406;2022-09-29T18:05:29;100402.84;;;12.09;82.40
54042;BME280;41156;51.508;5.406;2022-09-29T18:08:30;100406.72;;;12.01;82.70
54042;BME280;41156;51.508;5.406;2022-09-29T18:11:30;100407.66;;;11.95;82.94
54042;BME280;41156;51.508;5.406;2022-09-29T18:14:30;100412.94;;;11.90;82.83
54042;BME280;41156;51.508;5.406;2022-09-29T18:17:34;100418.22;;;11.84;83.55
54042;BME280;41156;51.508;5.406;2022-09-29T18:20:35;100419.38;;;11.77;83.50